createdAt,value
2018-03-31T00:00:20.445Z,11.00
2018-03-31T00:02:47.450Z,11.30
2018-03-31T00:05:14.497Z,12.50
2018-03-31T00:07:42.289Z,12.00
2018-03-31T00:10:09.306Z,11.57
2018-03-31T00:12:36.328Z,11.47
2018-03-31T00:15:03.441Z,11.63
2018-03-31T00:17:30.501Z,11.30
2018-03-31T00:19:58.326Z,11.90
2018-03-31T00:22:25.346Z,10.97
2018-03-31T00:24:53.136Z,11.73
2018-03-31T00:27:20.186Z,12.30
2018-03-31T00:29:47.950Z,11.33
2018-03-31T00:32:14.996Z,10.50
2018-03-31T00:34:42.015Z,11.63
2018-03-31T00:37:09.017Z,11.07
2018-03-31T00:39:36.074Z,11.27
2018-03-31T00:42:04.664Z,11.50
2018-03-31T00:44:31.695Z,10.90
2018-03-31T00:46:58.710Z,10.70
2018-03-31T00:49:25.757Z,9.87
2018-03-31T00:51:52.789Z,11.57
2018-03-31T00:54:19.821Z,11.73
2018-03-31T00:56:46.852Z,12.30
2018-03-31T00:59:13.875Z,11.40
2018-03-31T01:01:40.899Z,11.57
2018-03-31T01:04:07.893Z,11.10
2018-03-31T01:06:35.497Z,11.60
2018-03-31T01:09:03.286Z,11.63
2018-03-31T01:11:30.306Z,11.63
2018-03-31T01:13:57.341Z,12.30
2018-03-31T01:16:24.370Z,11.90
2018-03-31T01:18:51.376Z,11.13
2018-03-31T01:21:18.404Z,12.13
2018-03-31T01:23:45.454Z,12.10
2018-03-31T01:26:12.655Z,12.23
2018-03-31T01:28:39.695Z,12.67
2018-03-31T01:31:06.787Z,11.70
2018-03-31T01:33:34.575Z,12.00
2018-03-31T01:36:02.446Z,10.73
2018-03-31T01:38:30.238Z,10.90
2018-03-31T01:40:58.193Z,11.07
2018-03-31T01:43:25.352Z,12.17
2018-03-31T01:45:52.356Z,11.53
2018-03-31T01:48:19.350Z,12.10
2018-03-31T01:50:46.391Z,11.77
2018-03-31T01:53:13.608Z,11.60
2018-03-31T01:55:41.413Z,11.40
2018-03-31T01:58:08.440Z,10.80
2018-03-31T02:00:35.457Z,11.43
2018-03-31T02:03:02.636Z,11.27
2018-03-31T02:05:29.647Z,10.97
2018-03-31T02:07:56.659Z,12.00
2018-03-31T02:10:23.712Z,12.47
2018-03-31T02:12:50.767Z,11.77
2018-03-31T02:15:17.768Z,11.50
2018-03-31T02:17:45.531Z,11.60
2018-03-31T02:20:12.568Z,11.73
2018-03-31T02:22:39.552Z,11.50
2018-03-31T02:25:06.590Z,12.13
2018-03-31T02:27:33.595Z,12.50
2018-03-31T02:30:01.641Z,10.93
2018-03-31T02:32:28.676Z,12.10
2018-03-31T02:34:55.727Z,12.27
2018-03-31T02:37:22.768Z,11.90
2018-03-31T02:39:49.805Z,11.07
2018-03-31T02:42:17.655Z,11.20
2018-03-31T02:44:44.756Z,11.47
2018-03-31T02:47:11.777Z,12.40
2018-03-31T02:49:38.834Z,12.63
2018-03-31T02:52:05.917Z,11.13
2018-03-31T02:54:33.709Z,11.73
2018-03-31T02:57:00.735Z,12.00
2018-03-31T02:59:27.794Z,12.10
2018-03-31T03:01:54.849Z,11.03
2018-03-31T03:04:21.919Z,11.00
2018-03-31T03:06:48.986Z,11.47
2018-03-31T03:09:16.762Z,12.20
2018-03-31T03:11:44.873Z,11.73
2018-03-31T03:14:11.882Z,10.43
2018-03-31T03:16:38.987Z,11.77
2018-03-31T03:19:06.038Z,12.00
2018-03-31T03:21:33.873Z,11.10
2018-03-31T03:24:00.904Z,12.10
2018-03-31T03:26:27.954Z,12.17
2018-03-31T03:28:55.130Z,11.90
2018-03-31T03:31:22.302Z,11.47
2018-03-31T03:33:49.941Z,10.87
2018-03-31T03:36:16.943Z,11.33
2018-03-31T03:38:44.114Z,10.50
2018-03-31T03:41:11.120Z,11.20
2018-03-31T03:43:38.148Z,11.67
2018-03-31T03:46:05.204Z,10.80
2018-03-31T03:48:32.200Z,11.30
2018-03-31T03:50:59.192Z,11.10
2018-03-31T03:53:26.256Z,10.60
2018-03-31T03:55:53.371Z,10.20
2018-03-31T03:58:20.466Z,11.27
2018-03-31T04:00:47.500Z,11.40
2018-03-31T04:03:14.538Z,11.70
2018-03-31T04:05:41.574Z,10.93
2018-03-31T04:08:08.579Z,11.30
2018-03-31T04:10:35.611Z,11.30
2018-03-31T04:13:03.412Z,11.90
2018-03-31T04:15:30.441Z,11.03
2018-03-31T04:17:57.475Z,12.20
2018-03-31T04:20:24.471Z,10.73
2018-03-31T04:22:52.287Z,10.63
2018-03-31T04:25:19.402Z,10.83
2018-03-31T04:27:47.171Z,11.50
2018-03-31T04:30:14.981Z,11.27
2018-03-31T04:32:42.105Z,11.50
2018-03-31T04:35:09.173Z,10.83
2018-03-31T04:37:36.969Z,10.57
2018-03-31T04:40:04.787Z,10.50
2018-03-31T04:42:31.795Z,11.60
2018-03-31T04:44:59.651Z,10.90
2018-03-31T04:47:26.677Z,12.27
2018-03-31T04:49:53.683Z,12.03
2018-03-31T04:52:21.481Z,11.53
2018-03-31T04:54:48.485Z,11.00
2018-03-31T04:57:15.538Z,11.43
2018-03-31T04:59:42.541Z,11.80
2018-03-31T05:02:10.354Z,11.70
2018-03-31T05:04:37.349Z,12.13
2018-03-31T05:07:04.358Z,11.83
2018-03-31T05:09:31.495Z,13.00
2018-03-31T05:11:59.313Z,11.13
2018-03-31T05:14:27.163Z,12.90
2018-03-31T05:16:54.255Z,12.60
2018-03-31T05:19:21.305Z,13.13
2018-03-31T05:21:48.302Z,12.40
2018-03-31T05:24:15.359Z,12.50
2018-03-31T05:26:42.370Z,13.60
2018-03-31T05:29:10.654Z,13.20
2018-03-31T05:31:37.930Z,12.43
2018-03-31T05:34:04.979Z,13.43
2018-03-31T05:36:31.995Z,12.70
2018-03-31T05:38:58.984Z,12.10
2018-03-31T05:41:26.991Z,13.93
2018-03-31T05:43:54.027Z,13.60
2018-03-31T05:46:21.911Z,12.70
2018-03-31T05:48:48.944Z,12.63
2018-03-31T05:51:16.038Z,13.80
2018-03-31T05:53:43.191Z,13.20
2018-03-31T05:56:10.242Z,12.97
2018-03-31T05:58:38.042Z,12.80
2018-03-31T06:01:05.040Z,14.07
2018-03-31T06:03:32.109Z,12.47
2018-03-31T06:05:59.163Z,12.83
2018-03-31T06:08:26.170Z,11.47
2018-03-31T06:10:53.196Z,12.47
2018-03-31T06:13:20.267Z,12.87
2018-03-31T06:15:49.042Z,13.20
2018-03-31T06:18:16.066Z,12.53
2018-03-31T06:20:43.181Z,13.13
2018-03-31T06:23:10.975Z,11.70
2018-03-31T06:25:38.764Z,12.00
2018-03-31T06:28:05.813Z,12.63
2018-03-31T06:30:33.629Z,12.73
2018-03-31T06:33:00.729Z,13.03
2018-03-31T06:35:27.726Z,12.43
2018-03-31T06:37:54.781Z,13.00
2018-03-31T06:40:21.833Z,13.43
2018-03-31T06:42:49.428Z,12.73
2018-03-31T06:45:17.053Z,12.20
2018-03-31T06:47:44.114Z,12.50
2018-03-31T06:50:12.209Z,12.50
2018-03-31T06:52:39.964Z,13.17
2018-03-31T06:55:08.510Z,12.83
2018-03-31T06:57:35.513Z,12.27
2018-03-31T07:00:02.679Z,13.67
2018-03-31T07:02:31.173Z,13.17
2018-03-31T07:04:58.288Z,12.40
2018-03-31T07:07:25.474Z,13.30
2018-03-31T07:09:52.473Z,13.63
2018-03-31T07:12:20.360Z,13.77
2018-03-31T07:14:48.121Z,13.33
2018-03-31T07:17:15.180Z,14.27
2018-03-31T07:19:42.962Z,13.00
2018-03-31T07:22:10.803Z,13.30
2018-03-31T07:24:37.849Z,13.90
2018-03-31T07:27:04.861Z,14.33
2018-03-31T07:29:32.657Z,13.10
2018-03-31T07:31:59.667Z,14.40
2018-03-31T07:34:26.718Z,14.80
2018-03-31T07:36:53.740Z,14.30
2018-03-31T07:39:20.970Z,13.50
2018-03-31T07:41:47.964Z,13.97
2018-03-31T07:44:15.766Z,13.87
2018-03-31T07:46:42.778Z,14.20
2018-03-31T07:49:10.029Z,14.13
2018-03-31T07:51:37.836Z,14.97
2018-03-31T07:54:04.880Z,15.60
2018-03-31T07:56:32.672Z,14.90
2018-03-31T07:58:59.693Z,14.13
2018-03-31T08:01:26.772Z,15.70
2018-03-31T08:03:54.574Z,15.80
2018-03-31T08:06:21.910Z,15.00
2018-03-31T08:08:49.070Z,15.10
2018-03-31T08:11:16.412Z,15.20
2018-03-31T08:13:44.222Z,14.80
2018-03-31T08:16:12.046Z,15.47
2018-03-31T08:18:39.048Z,15.07
2018-03-31T08:21:06.133Z,15.50
2018-03-31T08:23:33.142Z,15.07
2018-03-31T08:26:00.246Z,15.57
2018-03-31T08:28:28.045Z,16.40
2018-03-31T08:30:55.097Z,16.30
2018-03-31T08:33:22.189Z,17.50
2018-03-31T08:35:49.184Z,17.20
2018-03-31T08:38:17.036Z,15.17
2018-03-31T08:40:44.054Z,16.93
2018-03-31T08:43:11.080Z,16.27
2018-03-31T08:45:38.869Z,17.07
2018-03-31T08:48:06.667Z,17.10
2018-03-31T08:50:33.675Z,17.20
2018-03-31T08:53:01.510Z,17.30
2018-03-31T08:55:29.447Z,18.70
2018-03-31T08:57:57.270Z,19.43
2018-03-31T09:00:24.924Z,21.13
2018-03-31T09:02:52.736Z,19.13
2018-03-31T09:05:19.740Z,19.97
2018-03-31T09:07:47.644Z,17.03
2018-03-31T09:10:14.651Z,19.13
2018-03-31T09:12:41.666Z,17.90
2018-03-31T09:15:08.727Z,17.40
2018-03-31T09:17:35.747Z,17.93
2018-03-31T09:20:02.917Z,17.77
2018-03-31T09:22:29.958Z,18.33
2018-03-31T09:24:57.987Z,19.97
2018-03-31T09:27:24.986Z,18.20
2018-03-31T09:29:52.009Z,17.53
2018-03-31T09:32:19.958Z,17.70
2018-03-31T09:34:47.716Z,19.80
2018-03-31T09:37:14.759Z,18.73
2018-03-31T09:39:41.789Z,20.77
2018-03-31T09:42:08.800Z,21.27
2018-03-31T09:44:35.877Z,21.80
2018-03-31T09:47:03.705Z,21.07
2018-03-31T09:49:31.415Z,18.30
2018-03-31T09:51:58.410Z,19.87
2018-03-31T09:54:25.596Z,19.60
2018-03-31T09:56:52.679Z,21.00
2018-03-31T09:59:19.676Z,21.47
2018-03-31T10:01:47.479Z,23.13
2018-03-31T10:04:14.772Z,21.63
2018-03-31T10:06:41.877Z,19.53
2018-03-31T10:09:09.670Z,20.27
2018-03-31T10:11:36.679Z,21.20
2018-03-31T10:14:03.791Z,19.83
2018-03-31T10:16:30.847Z,19.00
2018-03-31T10:18:57.895Z,19.50
2018-03-31T10:21:25.799Z,19.63
2018-03-31T10:23:53.660Z,19.53
2018-03-31T10:26:20.724Z,18.93
2018-03-31T10:28:47.804Z,20.63
2018-03-31T10:31:14.849Z,22.50
2018-03-31T10:33:41.986Z,19.87
2018-03-31T10:36:09.885Z,20.17
2018-03-31T10:38:36.925Z,21.07
2018-03-31T10:41:04.878Z,19.40
2018-03-31T10:43:31.973Z,18.77
2018-03-31T10:45:59.769Z,18.60
2018-03-31T10:48:26.772Z,17.70
2018-03-31T10:50:53.884Z,19.27
2018-03-31T10:53:20.884Z,19.70
2018-03-31T10:55:47.919Z,19.40
2018-03-31T10:58:15.092Z,19.40
2018-03-31T11:00:42.149Z,20.07
2018-03-31T11:03:09.352Z,20.57
2018-03-31T11:05:36.419Z,19.70
2018-03-31T11:08:03.451Z,19.30
2018-03-31T11:10:30.495Z,18.73
2018-03-31T11:12:57.513Z,20.50
2018-03-31T11:15:24.531Z,19.83
2018-03-31T11:17:53.080Z,18.87
2018-03-31T11:20:20.100Z,19.73
2018-03-31T11:22:47.141Z,19.80
2018-03-31T11:25:14.143Z,21.10
2018-03-31T11:27:41.196Z,19.77
2018-03-31T11:30:08.969Z,20.23
2018-03-31T11:32:36.715Z,20.50
2018-03-31T11:35:04.872Z,21.13
2018-03-31T11:37:32.210Z,21.17
2018-03-31T11:39:59.242Z,22.33
2018-03-31T11:42:26.334Z,22.67
2018-03-31T11:44:54.083Z,22.80
2018-03-31T11:47:21.907Z,21.17
2018-03-31T11:49:48.959Z,20.60
2018-03-31T11:52:15.945Z,21.73
2018-03-31T11:54:42.981Z,21.27
2018-03-31T11:57:10.064Z,19.63
2018-03-31T11:59:37.161Z,21.30
2018-03-31T12:02:04.933Z,21.30
2018-03-31T12:04:32.703Z,17.93
2018-03-31T12:06:59.733Z,19.83
2018-03-31T12:09:26.747Z,21.67
2018-03-31T12:11:54.570Z,18.47
2018-03-31T12:14:21.591Z,17.33
2018-03-31T12:16:48.932Z,20.30
2018-03-31T12:19:16.730Z,21.37
2018-03-31T12:21:43.767Z,21.23
2018-03-31T12:24:12.329Z,19.10
2018-03-31T12:26:39.439Z,20.13
2018-03-31T12:29:06.486Z,21.57
2018-03-31T12:31:34.289Z,19.30
2018-03-31T12:34:01.302Z,20.20
2018-03-31T12:36:28.603Z,19.77
2018-03-31T12:38:55.599Z,20.80
2018-03-31T12:41:23.479Z,20.93
2018-03-31T12:43:50.468Z,19.57
2018-03-31T12:46:17.649Z,20.70
2018-03-31T12:48:45.481Z,19.73
2018-03-31T12:51:12.511Z,21.43
2018-03-31T12:53:39.509Z,20.70
2018-03-31T12:56:06.617Z,20.07
2018-03-31T12:58:33.780Z,20.03
2018-03-31T13:01:00.820Z,20.80
2018-03-31T13:03:28.587Z,19.90
2018-03-31T13:05:55.882Z,19.67
2018-03-31T13:08:22.883Z,19.43
2018-03-31T13:10:49.982Z,20.23
2018-03-31T13:13:17.743Z,20.70
2018-03-31T13:15:44.738Z,20.87
2018-03-31T13:18:11.756Z,21.30
2018-03-31T13:20:39.515Z,21.97
2018-03-31T13:23:06.709Z,20.70
2018-03-31T13:25:34.976Z,21.40
2018-03-31T13:28:02.012Z,24.00
2018-03-31T13:30:29.211Z,21.30
2018-03-31T13:32:57.008Z,21.37
2018-03-31T13:35:24.813Z,19.80
2018-03-31T13:37:52.455Z,21.20
2018-03-31T13:40:20.587Z,19.90
2018-03-31T13:42:47.611Z,21.50
2018-03-31T13:45:14.624Z,20.47
2018-03-31T13:47:41.654Z,21.00
2018-03-31T13:50:08.650Z,21.73
2018-03-31T13:52:35.694Z,18.10
2018-03-31T13:55:03.423Z,23.17
2018-03-31T13:57:31.335Z,22.17
2018-03-31T13:59:58.346Z,22.80
2018-03-31T14:02:26.241Z,21.67
2018-03-31T14:04:53.315Z,22.17
2018-03-31T14:07:20.387Z,21.87
2018-03-31T14:09:47.407Z,22.27
2018-03-31T14:12:15.229Z,22.93
2018-03-31T14:14:42.271Z,22.87
2018-03-31T14:17:09.291Z,23.30
2018-03-31T14:19:37.088Z,22.83
2018-03-31T14:22:04.087Z,24.53
2018-03-31T14:24:31.101Z,24.50
2018-03-31T14:26:58.107Z,25.50
2018-03-31T14:29:25.163Z,23.33
2018-03-31T14:31:52.209Z,22.53
2018-03-31T14:34:19.251Z,21.70
2018-03-31T14:36:46.268Z,21.90
2018-03-31T14:39:13.358Z,22.27
2018-03-31T14:41:40.362Z,21.77
2018-03-31T14:44:07.428Z,23.60
2018-03-31T14:46:34.539Z,24.60
2018-03-31T14:49:01.604Z,24.00
2018-03-31T14:51:28.613Z,22.97
2018-03-31T14:53:55.638Z,22.33
2018-03-31T14:56:22.683Z,24.40
2018-03-31T14:58:49.721Z,24.07
2018-03-31T15:01:17.562Z,23.37
2018-03-31T15:03:44.617Z,25.30
2018-03-31T15:06:11.713Z,25.00
2018-03-31T15:08:39.594Z,23.10
2018-03-31T15:11:07.390Z,25.20
2018-03-31T15:13:34.405Z,23.97
2018-03-31T15:16:02.330Z,27.10
2018-03-31T15:18:29.346Z,24.80
2018-03-31T15:20:56.388Z,25.80
2018-03-31T15:23:23.440Z,25.43
2018-03-31T15:25:50.484Z,25.00
2018-03-31T15:28:18.033Z,25.53
2018-03-31T15:30:45.208Z,24.50
2018-03-31T15:33:12.255Z,24.10
2018-03-31T15:35:39.270Z,24.57
2018-03-31T15:38:06.374Z,25.93
2018-03-31T15:40:33.381Z,26.67
2018-03-31T15:43:00.505Z,26.13
2018-03-31T15:45:27.609Z,25.37
2018-03-31T15:47:54.605Z,27.80
2018-03-31T15:50:22.400Z,28.40
2018-03-31T15:52:49.510Z,28.23
2018-03-31T15:55:16.521Z,26.60
2018-03-31T15:57:43.760Z,25.87
2018-03-31T16:00:11.559Z,26.63
2018-03-31T16:02:38.693Z,24.20
2018-03-31T16:05:06.476Z,25.80
2018-03-31T16:07:34.301Z,26.87
2018-03-31T16:10:01.307Z,25.20
2018-03-31T16:12:29.296Z,25.20
2018-03-31T16:14:57.066Z,18.77
2018-03-31T16:17:25.108Z,25.40
2018-03-31T16:19:52.237Z,24.97
2018-03-31T16:22:19.588Z,25.30
2018-03-31T16:24:46.649Z,26.60
2018-03-31T16:27:13.686Z,39.47
2018-03-31T16:29:40.696Z,28.20
2018-03-31T16:32:07.968Z,25.20
2018-03-31T16:34:35.030Z,23.63
2018-03-31T16:37:02.067Z,24.10
2018-03-31T16:39:29.191Z,25.77
2018-03-31T16:41:56.216Z,25.50
2018-03-31T16:44:23.283Z,26.50
2018-03-31T16:46:50.308Z,25.20
2018-03-31T16:49:17.513Z,34.80
2018-03-31T16:51:44.515Z,24.80
2018-03-31T16:54:11.599Z,25.23
2018-03-31T16:56:39.048Z,27.90
2018-03-31T16:59:06.051Z,23.53
2018-03-31T17:01:33.096Z,25.33
2018-03-31T17:04:00.195Z,25.60
2018-03-31T17:06:27.730Z,45.97
2018-03-31T17:08:54.787Z,41.37
2018-03-31T17:11:22.117Z,41.33
2018-03-31T17:13:49.272Z,31.73
2018-03-31T17:16:16.337Z,28.83
2018-03-31T17:18:43.346Z,26.23
2018-03-31T17:21:11.915Z,24.43
2018-03-31T17:23:38.930Z,23.80
2018-03-31T17:26:07.080Z,24.63
2018-03-31T17:28:34.265Z,26.23
2018-03-31T17:31:01.304Z,26.67
2018-03-31T17:33:29.265Z,27.30
2018-03-31T17:38:29.649Z,28.13
2018-03-31T17:40:56.720Z,30.17
2018-03-31T17:43:23.721Z,30.03
2018-03-31T17:45:50.758Z,30.17
2018-03-31T17:48:17.900Z,30.57
2018-03-31T17:50:44.931Z,32.13
2018-03-31T17:53:11.966Z,30.63
2018-03-31T17:55:38.980Z,29.73
2018-03-31T17:58:06.011Z,28.23
2018-03-31T18:00:33.990Z,29.73
2018-03-31T18:03:01.016Z,30.20
2018-03-31T18:05:28.053Z,28.57
2018-03-31T18:07:55.875Z,30.30
2018-03-31T18:10:22.897Z,29.67
2018-03-31T18:12:50.719Z,31.43
2018-03-31T18:15:18.584Z,31.20
2018-03-31T18:17:45.602Z,32.20
2018-03-31T18:20:13.394Z,29.17
2018-03-31T18:22:41.182Z,31.20
2018-03-31T18:25:08.211Z,33.10
2018-03-31T18:27:35.392Z,32.03
2018-03-31T18:30:03.213Z,32.00
2018-03-31T18:32:30.277Z,34.87
2018-03-31T18:34:57.320Z,33.17
2018-03-31T18:37:24.360Z,32.33
2018-03-31T18:39:51.365Z,31.90
2018-03-31T18:42:18.401Z,31.10
2018-03-31T18:44:45.520Z,31.20
2018-03-31T18:47:12.519Z,29.97
2018-03-31T18:49:40.421Z,30.50
2018-03-31T18:52:07.543Z,28.77
2018-03-31T18:54:34.594Z,31.00
2018-03-31T18:57:01.588Z,30.17
2018-03-31T18:59:28.758Z,38.93
2018-03-31T19:01:55.899Z,38.93
2018-03-31T19:04:22.935Z,30.77
2018-03-31T19:06:49.942Z,32.80
2018-03-31T19:09:17.051Z,29.23
2018-03-31T19:11:44.280Z,27.17
2018-03-31T19:14:11.323Z,27.47
2018-03-31T19:16:44.030Z,25.10
2018-03-31T19:19:11.855Z,28.00
2018-03-31T19:21:39.706Z,25.70
2018-03-31T19:24:08.199Z,24.87
2018-03-31T19:26:36.208Z,26.33
2018-03-31T19:29:03.239Z,26.03
2018-03-31T19:31:31.024Z,26.20
2018-03-31T19:33:58.853Z,23.47
2018-03-31T19:36:25.880Z,23.47
2018-03-31T19:38:52.981Z,22.50
2018-03-31T19:41:20.038Z,22.73
2018-03-31T19:43:47.135Z,23.13
2018-03-31T19:46:14.917Z,21.73
2018-03-31T19:48:41.909Z,23.20
2018-03-31T19:51:08.920Z,26.53
2018-03-31T19:53:36.686Z,23.90
2018-03-31T19:56:03.942Z,24.70
2018-03-31T19:58:30.962Z,24.40
2018-03-31T20:00:58.069Z,24.50
2018-03-31T20:03:25.151Z,23.70
2018-03-31T20:05:52.210Z,24.03
2018-03-31T20:08:20.027Z,21.10
2018-03-31T20:10:47.707Z,23.47
2018-03-31T20:13:14.737Z,24.07
2018-03-31T20:15:42.006Z,23.30
2018-03-31T20:18:09.038Z,24.40
2018-03-31T20:20:36.818Z,24.50
2018-03-31T20:23:04.809Z,24.57
2018-03-31T20:25:31.890Z,24.33
2018-03-31T20:27:58.948Z,25.00
2018-03-31T20:30:26.008Z,23.40
2018-03-31T20:32:53.067Z,26.23
2018-03-31T20:35:20.125Z,23.20
2018-03-31T20:37:48.013Z,23.47
2018-03-31T20:40:15.119Z,22.00
2018-03-31T20:42:42.132Z,23.20
2018-03-31T20:45:10.274Z,19.90
2018-03-31T20:47:38.072Z,19.53
2018-03-31T20:50:05.194Z,19.60
2018-03-31T20:52:32.188Z,22.47
2018-03-31T20:54:59.276Z,21.70
2018-03-31T20:57:26.298Z,21.90
2018-03-31T20:59:54.105Z,20.83
2018-03-31T21:02:21.177Z,16.00
2018-03-31T21:04:48.232Z,19.70
2018-03-31T21:07:15.261Z,19.10
2018-03-31T21:09:43.140Z,18.13
2018-03-31T21:12:11.123Z,17.27
2018-03-31T21:14:38.928Z,18.00
2018-03-31T21:17:06.215Z,18.27
2018-03-31T21:19:33.324Z,18.73
2018-03-31T21:22:01.106Z,17.33
2018-03-31T21:24:28.754Z,17.50
2018-03-31T21:26:55.838Z,18.23
2018-03-31T21:29:23.102Z,18.00
2018-03-31T21:31:50.923Z,17.90
2018-03-31T21:34:17.935Z,18.57
2018-03-31T21:36:46.694Z,15.13
2018-03-31T21:39:13.744Z,15.60
2018-03-31T21:41:40.859Z,15.70
2018-03-31T21:44:08.714Z,16.67
2018-03-31T21:46:36.734Z,16.40
2018-03-31T21:49:03.797Z,15.30
2018-03-31T21:51:30.853Z,16.70
2018-03-31T21:53:57.947Z,17.37
2018-03-31T21:56:25.064Z,17.00
2018-03-31T21:58:52.119Z,18.30
2018-03-31T22:01:19.159Z,17.80
2018-03-31T22:03:47.043Z,17.80
2018-03-31T22:06:14.870Z,16.73
2018-03-31T22:08:41.962Z,17.00
2018-03-31T22:11:09.064Z,17.50
2018-03-31T22:13:41.964Z,16.93
2018-03-31T22:16:09.024Z,14.87
2018-03-31T22:18:36.076Z,15.57
2018-03-31T22:21:03.140Z,14.00
2018-03-31T22:23:30.202Z,13.23
2018-03-31T22:25:57.351Z,13.80
2018-03-31T22:28:24.406Z,12.97
2018-03-31T22:30:53.140Z,13.40
2018-03-31T22:33:20.167Z,12.50
2018-03-31T22:38:21.164Z,12.20
2018-03-31T22:40:48.191Z,12.67
2018-03-31T22:43:16.026Z,12.60
2018-03-31T22:45:43.409Z,11.90
2018-03-31T22:48:10.485Z,12.87
2018-03-31T22:50:37.490Z,12.40
2018-03-31T22:53:05.025Z,11.90
2018-03-31T22:55:32.804Z,12.77
2018-03-31T22:58:00.599Z,12.27
2018-03-31T23:03:00.795Z,10.30
2018-03-31T23:05:28.467Z,11.60
2018-03-31T23:10:28.871Z,9.67
2018-03-31T23:12:57.423Z,10.40
2018-03-31T23:15:24.442Z,10.27
2018-03-31T23:17:52.244Z,8.20
2018-03-31T23:20:19.294Z,8.80
2018-03-31T23:22:46.338Z,9.10
2018-03-31T23:25:14.138Z,9.43
2018-03-31T23:27:41.186Z,8.53
2018-03-31T23:30:08.198Z,8.37
2018-03-31T23:32:35.752Z,8.40
2018-03-31T23:35:02.853Z,7.83
2018-03-31T23:37:30.636Z,6.60
2018-03-31T23:39:58.435Z,7.13
2018-03-31T23:42:25.445Z,9.20
2018-03-31T23:44:52.517Z,7.57
2018-03-31T23:47:19.537Z,7.60
2018-03-31T23:49:46.570Z,6.87
2018-03-31T23:52:13.613Z,7.63
2018-03-31T23:54:41.410Z,7.43
2018-03-31T23:57:08.416Z,7.23
2018-03-31T23:59:35.501Z,7.27
